»·PEaware :: N221XG KYKM-KGEG

N221XG :: KYKM-KGEG

FLIGHT INFORMATION

Flight Status: Arrived
Operator: Privately registered:
United States
More flights under this callsign
Pilot: Ryan L. (9775)
Aircraft: SOCATA TBM-900
(TBM9)
More flights by this aircraft type
Origin: KYKM Yakima Air Term/Mcallister
United States
Destination: KGEG Spokane Intl
United States
More flights between these airports :: More routes between these airports
Route: WENAS7 RUBEL V448 GEG
File this flight plan on PilotEdge
Remarks:
Altitude:
(Current/Filed)
23,000ft
Speed:
(Current/Filed)
280kts
Departed: 19-Jan-19 03:51 PM
Arrived: 19-Jan-19 04:37 PM
Distance/Time
Traveled:
138nm/0:46
Distance/Time
To Go:
Arrived

Flight Plot

Page will automatically refresh every two minutes.

Flight plan parsing failed; only flown route is shown


Map Options




Map Legend


Flown Route
Filed Route
Departure Airport
Arrival Airport
Navaid (VOR, NDB)
Fix

Horizontal Profiles

Position Reports

Time Latitude Longitude Heading Altitude Ground
Speed
19-Jan-19 15:38 46.573004 -120.553552 288 1102ft 0kts
19-Jan-19 15:39 46.573004 -120.553552 288 1102ft 0kts
19-Jan-19 15:40 46.573004 -120.553552 288 1102ft 0kts
19-Jan-19 15:41 46.572936 -120.553791 216 1102ft 0kts
19-Jan-19 15:42 46.572345 -120.553714 140 1102ft 9kts
19-Jan-19 15:43 46.570986 -120.548597 111 1102ft 16kts
19-Jan-19 15:44 46.569245 -120.541646 108 1102ft 20kts
19-Jan-19 15:45 46.567331 -120.534016 109 1102ft 19kts
19-Jan-19 15:46 46.566399 -120.531491 178 1102ft 0kts
19-Jan-19 15:47 46.566399 -120.531491 178 1102ft 0kts
19-Jan-19 15:48 46.566399 -120.531491 178 1102ft 0kts
19-Jan-19 15:49 46.566314 -120.531488 178 1102ft 3kts
19-Jan-19 15:50 46.568574 -120.543354 291 1162ft 109kts
19-Jan-19 15:51 46.581031 -120.588621 265 2915ft 124kts
19-Jan-19 15:52 46.584330 -120.640240 271 4621ft 140kts
19-Jan-19 15:53 46.608884 -120.668569 32 6851ft 182kts
19-Jan-19 15:54 46.652041 -120.627649 26 8936ft 192kts
19-Jan-19 15:55 46.692826 -120.570569 51 10962ft 219kts
19-Jan-19 15:56 46.717723 -120.485296 83 12793ft 236kts
19-Jan-19 15:57 46.715685 -120.390547 117 14757ft 232kts
19-Jan-19 15:58 46.688472 -120.310027 149 16775ft 211kts
19-Jan-19 15:59 46.672780 -120.228135 47 18523ft 275kts
19-Jan-19 16:00 46.730919 -120.166575 43 20470ft 281kts
19-Jan-19 16:02 46.781438 -120.077916 41 22352ft 288kts
19-Jan-19 16:03 46.836012 -119.982447 41 23033ft 334kts
19-Jan-19 16:04 46.898802 -119.872039 42 23010ft 363kts
19-Jan-19 16:05 46.963704 -119.757478 42 23227ft 367kts
19-Jan-19 16:06 47.029724 -119.640488 42 23230ft 374kts
19-Jan-19 16:07 47.096735 -119.521183 43 23231ft 377kts
19-Jan-19 16:08 47.162897 -119.402895 43 23226ft 377kts
19-Jan-19 16:09 47.220642 -119.275653 73 23236ft 384kts
19-Jan-19 16:10 47.252480 -119.125297 72 23210ft 363kts
19-Jan-19 16:11 47.282864 -118.984373 72 20461ft 356kts
19-Jan-19 16:12 47.311814 -118.849173 71 18652ft 338kts
19-Jan-19 16:13 47.339486 -118.719128 71 17230ft 325kts
19-Jan-19 16:14 47.365987 -118.593766 71 15826ft 312kts
19-Jan-19 16:15 47.391248 -118.473622 71 14511ft 299kts
19-Jan-19 16:16 47.415317 -118.358401 71 13285ft 288kts
19-Jan-19 16:17 47.430757 -118.247199 84 13088ft 280kts
19-Jan-19 16:18 47.439718 -118.130197 84 13095ft 294kts
19-Jan-19 16:19 47.448992 -118.008711 84 13092ft 299kts
19-Jan-19 16:20 47.457836 -117.892125 84 12125ft 274kts
19-Jan-19 16:20 47.464822 -117.800014 84 10668ft 263kts
19-Jan-19 16:22 47.474270 -117.679604 84 8684ft 245kts
19-Jan-19 16:22 47.481143 -117.596070 83 7188ft 239kts
19-Jan-19 16:24 47.490739 -117.482164 83 7093ft 234kts
19-Jan-19 16:24 47.497666 -117.400644 83 7093ft 234kts
19-Jan-19 16:26 47.507402 -117.286805 84 7090ft 233kts
19-Jan-19 16:26 47.514347 -117.205701 84 7090ft 233kts
19-Jan-19 16:27 47.542143 -117.130324 4 7112ft 221kts
19-Jan-19 16:28 47.593483 -117.150085 299 7092ft 184kts
19-Jan-19 16:29 47.619242 -117.211862 268 6763ft 152kts
19-Jan-19 16:30 47.615166 -117.260161 264 6122ft 90kts
19-Jan-19 16:31 47.615078 -117.301153 267 5454ft 115kts
19-Jan-19 16:32 47.615518 -117.352497 268 4699ft 129kts
19-Jan-19 16:33 47.615964 -117.406138 269 3938ft 126kts
19-Jan-19 16:34 47.617049 -117.458896 270 3275ft 119kts
19-Jan-19 16:35 47.616662 -117.500739 268 2684ft 93kts
19-Jan-19 16:36 47.616858 -117.533902 274 2378ft 24kts

Navigation Log

Ident Type
Flight plan parsing failed, navigation log unavailable